Terminal Aerodrome Forecast
Issued by NWS

Home | Current Version | Previous Version | Text Only | Print | Product List | Glossary On
Versions: 1 2 3 4 5 6 7 8 9 10 11 12 13 14 15 16 17 18 19 20 21 22 23
000
FTUS43 KIND 011400 AAA
TAFHUF
TAF AMD
KHUF 011421Z 0114/0212 20012G18KT P6SM BKN020
     FM011700 22014G20KT P6SM SCT015 BKN035
     FM012000 22012G18KT P6SM VCTS BKN035CB
     FM020100 22010KT 3SM -TSRA BR OVC015CB=

USA.gov is the U.S. government's official web portal to all federal, state and local government web resources and services.